Time;durP1;ratioP1;P1;durP2;ratioP2;P2;SDS_P1;SDS_P2;PMS_P1;PMS_P2;Temp;Humidity;BMP_temperature;BMP_pressure;BME280_temperature;BME280_humidity;BME280_pressure;Samples;Min_cycle;Max_cycle;Signal;HPM_P1;HPM_P2
2023/01/10 00:05:19;;;;;;;30.80;17.10;;;;;;;10.02;100.00;98126.65;265210;1265;2794865;-83
2023/01/10 00:17:58;;;;;;;30.50;17.30;;;;;;;9.78;100.00;98143.42;268365;1273;22526;-84
2023/01/10 00:24:17;;;;;;;28.60;16.60;;;;;;;9.70;100.00;98149.59;267862;1273;24755;-84
2023/01/10 00:30:20;;;;;;;24.60;14.60;;;;;;;9.66;100.00;98152.54;268106;1273;22924;-82
2023/01/10 00:36:27;;;;;;;26.90;15.30;;;;;;;9.68;100.00;98159.77;268239;1271;23271;-81
2023/01/10 00:48:56;;;;;;;28.30;16.50;;;;;;;9.69;100.00;98168.15;267707;1271;22546;-85
2023/01/10 00:55:04;;;;;;;29.10;15.50;;;;;;;9.62;100.00;98179.31;268394;1273;23922;-85
2023/01/10 01:01:13;;;;;;;24.60;14.80;;;;;;;9.53;100.00;98182.58;268178;1273;23226;-86
2023/01/10 01:07:18;;;;;;;25.50;15.10;;;;;;;9.63;100.00;98191.84;268120;1267;22608;-82
2023/01/10 01:13:27;;;;;;;26.90;15.40;;;;;;;9.56;100.00;98194.12;267900;1268;22541;-82
2023/01/10 01:19:33;;;;;;;28.80;16.10;;;;;;;9.55;100.00;98199.35;268122;1267;22563;-84
2023/01/10 01:25:36;;;;;;;29.10;16.90;;;;;;;9.45;100.00;98198.81;268927;1273;23190;-82
2023/01/10 01:31:39;;;;;;;28.00;16.90;;;;;;;9.37;100.00;98205.29;268931;1270;25451;-81
2023/01/10 01:37:45;;;;;;;29.80;17.60;;;;;;;9.38;100.00;98205.09;268412;1260;22536;-80
2023/01/10 01:44:09;;;;;;;32.10;17.60;;;;;;;9.27;100.00;98204.70;267816;1270;22541;-82
2023/01/10 01:50:18;;;;;;;32.30;18.60;;;;;;;9.39;100.00;98206.72;267631;1273;22541;-82
2023/01/10 01:56:29;;;;;;;31.30;17.60;;;;;;;9.36;100.00;98208.81;267775;1267;22552;-81
2023/01/10 02:02:45;;;;;;;29.10;16.80;;;;;;;9.40;100.00;98211.61;268012;1268;25332;-84
2023/01/10 02:09:43;;;;;;;29.40;17.00;;;;;;;9.35;100.00;98217.66;268152;1273;22621;-83
2023/01/10 02:15:48;;;;;;;26.60;15.40;;;;;;;9.24;100.00;98218.38;268351;1267;22464;-85
2023/01/10 02:22:27;;;;;;;25.60;14.40;;;;;;;8.97;100.00;98227.15;267928;1273;25298;-85
2023/01/10 02:28:50;;;;;;;24.50;13.80;;;;;;;9.12;100.00;98228.90;267963;1270;22543;-85
2023/01/10 02:35:11;;;;;;;20.60;11.60;;;;;;;9.21;100.00;98230.46;267944;1273;25298;-84
2023/01/10 02:41:40;;;;;;;21.70;12.40;;;;;;;9.02;100.00;98236.77;268237;1273;25681;-84
2023/01/10 02:47:43;;;;;;;22.10;11.90;;;;;;;8.94;100.00;98246.55;268795;1273;22538;-84
2023/01/10 02:53:51;;;;;;;21.40;12.40;;;;;;;8.88;100.00;98248.47;268817;1262;24212;-82
2023/01/10 03:00:20;;;;;;;20.40;11.40;;;;;;;9.08;100.00;98253.14;268522;1273;23320;-83
2023/01/10 03:06:34;;;;;;;19.00;10.60;;;;;;;9.35;100.00;98255.75;267842;1273;24222;-86
2023/01/10 03:12:50;;;;;;;17.40;10.20;;;;;;;9.26;100.00;98263.48;268148;1273;22670;-86
2023/01/10 03:18:59;;;;;;;18.70;10.80;;;;;;;8.98;100.00;98274.19;267865;1267;23235;-85
2023/01/10 03:25:03;;;;;;;15.90;9.20;;;;;;;8.84;100.00;98282.72;268242;1267;23379;-83
2023/01/10 03:31:14;;;;;;;16.70;9.30;;;;;;;8.81;100.00;98290.05;267987;1273;25212;-85
2023/01/10 03:37:29;;;;;;;18.20;10.20;;;;;;;8.58;100.00;98299.20;268167;1273;24206;-86
2023/01/10 03:50:29;;;;;;;15.90;9.10;;;;;;;8.87;100.00;98319.29;268296;1268;22547;-87
2023/01/10 03:56:43;;;;;;;13.90;8.10;;;;;;;8.72;100.00;98336.25;268231;1273;25313;-85
2023/01/10 04:02:56;;;;;;;13.70;8.50;;;;;;;8.59;100.00;98346.37;268125;1273;25418;-86
2023/01/10 04:09:06;;;;;;;13.10;7.30;;;;;;;8.42;100.00;98360.19;268133;1266;22668;-84
2023/01/10 04:15:11;;;;;;;12.30;7.10;;;;;;;12.85;100.00;98375.12;267992;1267;23464;-85
2023/01/10 04:21:22;;;;;;;11.60;5.80;;;;;;;14.21;96.40;98382.76;267865;1255;24812;-85
2023/01/10 04:27:26;;;;;;;8.80;4.60;;;;;;;13.30;99.05;98387.36;268011;1270;22523;-83
2023/01/10 04:33:32;;;;;;;10.30;4.90;;;;;;;12.56;100.00;98394.13;268120;1270;22547;-83
2023/01/10 04:39:47;;;;;;;8.30;3.70;;;;;;;12.64;100.00;98399.23;268014;1267;22614;-83
2023/01/10 04:45:53;;;;;;;7.00;3.40;;;;;;;12.10;100.00;98409.42;268130;1267;22596;-85
2023/01/10 04:51:59;;;;;;;8.30;3.90;;;;;;;12.26;100.00;98420.98;267956;1273;24315;-83
2023/01/10 04:58:03;;;;;;;6.50;3.30;;;;;;;12.66;100.00;98428.98;268005;1273;24700;-83
2023/01/10 05:04:15;;;;;;;6.00;3.00;;;;;;;12.40;100.00;98434.46;268235;1273;22749;-83
2023/01/10 05:10:24;;;;;;;5.70;2.80;;;;;;;11.77;100.00;98448.11;268275;1267;24363;-83
2023/01/10 05:16:28;;;;;;;5.80;2.60;;;;;;;11.62;100.00;98463.45;268304;1267;22544;-83
2023/01/10 05:22:31;;;;;;;4.10;2.60;;;;;;;11.69;100.00;98471.29;268718;1267;22561;-82
2023/01/10 05:28:35;;;;;;;7.00;2.80;;;;;;;11.28;100.00;98480.77;268449;1272;25444;-83
2023/01/10 05:34:38;;;;;;;5.80;3.00;;;;;;;11.58;100.00;98484.42;268682;1266;22950;-85
2023/01/10 05:40:41;;;;;;;5.40;2.70;;;;;;;11.24;100.00;98496.76;268805;1270;22533;-85
2023/01/10 05:46:44;;;;;;;4.70;2.40;;;;;;;10.97;100.00;98510.34;268578;1268;24284;-83
2023/01/10 05:52:52;;;;;;;4.20;2.40;;;;;;;11.66;100.00;98511.00;268248;1268;24207;-85
2023/01/10 05:58:58;;;;;;;5.10;2.60;;;;;;;11.38;100.00;98523.70;268074;1272;25327;-85
2023/01/10 06:05:13;;;;;;;6.20;2.60;;;;;;;11.11;100.00;98544.77;267710;1273;22534;-82
2023/01/10 06:11:16;;;;;;;2.90;2.00;;;;;;;10.77;100.00;98550.23;266930;1266;22654;-84
2023/01/10 06:17:19;;;;;;;5.10;2.20;;;;;;;9.71;100.00;98564.75;267130;1265;25187;-85
2023/01/10 06:23:23;;;;;;;4.10;2.10;;;;;;;9.58;100.00;98573.48;267392;1270;23240;-79
2023/01/10 06:29:34;;;;;;;3.00;1.90;;;;;;;10.17;100.00;98574.60;267500;1270;22588;-83
2023/01/10 06:35:45;;;;;;;5.70;2.50;;;;;;;9.97;100.00;98591.77;267597;1272;22750;-86
2023/01/10 06:41:55;;;;;;;4.30;1.80;;;;;;;10.32;100.00;98606.77;267155;1270;22656;-89
2023/01/10 06:48:04;;;;;;;4.50;2.30;;;;;;;9.97;100.00;98610.86;268010;1273;22657;-87
2023/01/10 06:54:10;;;;;;;3.60;2.00;;;;;;;9.55;100.00;98623.83;269017;1267;22542;-88
2023/01/10 07:00:20;;;;;;;;;;;;;;;9.80;100.00;98625.94;268353;1273;22531;-88
2023/01/10 07:06:23;;;;;;;3.60;1.60;;;;;;;-128.00;-1.00;-1.00;264616;1273;1002355;-88
2023/01/10 07:12:32;;;;;;;2.60;1.50;;;;;;;-128.00;-1.00;-1.00;265123;1273;1002756;-86
2023/01/10 07:18:36;;;;;;;3.80;1.40;;;;;;;-128.00;-1.00;-1.00;264898;1265;1002664;-86
2023/01/10 07:24:39;;;;;;;3.00;1.50;;;;;;;-128.00;-1.00;-1.00;265003;1273;1002862;-86
2023/01/10 07:30:42;;;;;;;3.00;1.20;;;;;;;-128.00;-1.00;-1.00;264311;1249;1002970;-87
2023/01/10 07:36:53;;;;;;;2.60;1.40;;;;;;;-128.00;-1.00;-1.00;264277;1273;1002925;-87
2023/01/10 07:42:58;;;;;;;4.10;1.50;;;;;;;-128.00;-1.00;-1.00;264401;1273;1002973;-87
2023/01/10 07:49:00;;;;;;;2.80;1.20;;;;;;;-128.00;-1.00;-1.00;264401;1273;1002918;-87
2023/01/10 07:55:04;;;;;;;2.80;1.50;;;;;;;-128.00;-1.00;-1.00;264201;1273;1004677;-87
2023/01/10 08:01:15;;;;;;;5.10;1.80;;;;;;;-128.00;-1.00;-1.00;264329;1273;1003133;-88
2023/01/10 08:07:18;;;;;;;4.80;1.70;;;;;;;-128.00;-1.00;-1.00;264529;1273;1002789;-87
2023/01/10 08:13:22;;;;;;;3.20;1.50;;;;;;;-128.00;-1.00;-1.00;264454;1271;1002654;-88
2023/01/10 08:19:28;;;;;;;4.50;1.80;;;;;;;-128.00;-1.00;-1.00;264159;1273;1003076;-88
2023/01/10 08:25:30;;;;;;;4.40;2.40;;;;;;;-128.00;-1.00;-1.00;264246;1273;1002511;-88
2023/01/10 08:31:34;;;;;;;4.20;1.80;;;;;;;-128.00;-1.00;-1.00;264197;1273;1002853;-88
2023/01/10 08:37:37;;;;;;;4.00;2.20;;;;;;;-128.00;-1.00;-1.00;264431;1273;1003365;-87
2023/01/10 08:43:42;;;;;;;4.60;2.20;;;;;;;-128.00;-1.00;-1.00;263989;1267;1002834;-87
2023/01/10 08:49:54;;;;;;;5.10;2.40;;;;;;;-128.00;-1.00;-1.00;264086;1273;1002552;-87
2023/01/10 08:55:57;;;;;;;4.20;2.60;;;;;;;-128.00;-1.00;-1.00;264352;1273;1003025;-88
2023/01/10 09:02:00;;;;;;;5.10;2.50;;;;;;;-128.00;-1.00;-1.00;264256;1272;1002538;-88
2023/01/10 09:08:04;;;;;;;5.70;3.00;;;;;;;-128.00;-1.00;-1.00;264374;1272;1003395;-87
2023/01/10 09:14:07;;;;;;;6.10;3.30;;;;;;;-128.00;-1.00;-1.00;264542;1272;1003836;-87
2023/01/10 09:20:10;;;;;;;6.50;3.10;;;;;;;-128.00;-1.00;-1.00;264331;1273;1004327;-88
2023/01/10 09:26:16;;;;;;;7.90;3.70;;;;;;;-128.00;-1.00;-1.00;264295;1273;1002726;-88
2023/01/10 09:32:19;;;;;;;9.10;4.00;;;;;;;-128.00;-1.00;-1.00;264400;1272;1002448;-86
2023/01/10 09:38:23;;;;;;;7.40;4.30;;;;;;;-128.00;-1.00;-1.00;264203;1273;1002478;-87
2023/01/10 09:44:45;;;;;;;7.20;4.70;;;;;;;-128.00;-1.00;-1.00;264210;1273;1002906;-88
2023/01/10 09:50:58;;;;;;;9.10;4.90;;;;;;;-128.00;-1.00;-1.00;264520;1273;1002740;-87
2023/01/10 09:57:03;;;;;;;8.50;5.20;;;;;;;-128.00;-1.00;-1.00;264388;1251;1002588;-88
2023/01/10 10:03:26;;;;;;;10.90;5.80;;;;;;;-128.00;-1.00;-1.00;264347;1273;1004495;-87
2023/01/10 10:09:34;;;;;;;10.40;5.20;;;;;;;-128.00;-1.00;-1.00;264457;1273;1002723;-87
2023/01/10 10:15:46;;;;;;;10.40;6.00;;;;;;;-128.00;-1.00;-1.00;264431;1273;1002505;-86
2023/01/10 10:22:13;;;;;;;10.70;5.70;;;;;;;-128.00;-1.00;-1.00;264440;1273;1003146;-87
2023/01/10 10:28:58;;;;;;;10.50;5.70;;;;;;;-128.00;-1.00;-1.00;264017;1273;1002863;-88
2023/01/10 10:35:12;;;;;;;11.00;5.30;;;;;;;-128.00;-1.00;-1.00;263450;1273;1004273;-87
2023/01/10 10:41:24;;;;;;;9.80;5.70;;;;;;;-128.00;-1.00;-1.00;264364;1268;1002534;-87
2023/01/10 10:47:32;;;;;;;9.10;4.60;;;;;;;-128.00;-1.00;-1.00;264335;1273;1002602;-87
2023/01/10 10:53:35;;;;;;;12.00;4.90;;;;;;;-128.00;-1.00;-1.00;264129;1250;1002417;-87
2023/01/10 10:59:40;;;;;;;6.90;3.90;;;;;;;-128.00;-1.00;-1.00;264581;1273;1002784;-88
2023/01/10 11:05:45;;;;;;;5.20;2.70;;;;;;;-128.00;-1.00;-1.00;264482;1273;1002646;-87
2023/01/10 11:11:50;;;;;;;5.50;2.20;;;;;;;-128.00;-1.00;-1.00;264441;1273;1002588;-88
2023/01/10 11:18:05;;;;;;;3.40;2.00;;;;;;;-128.00;-1.00;-1.00;264499;1273;1004288;-88
2023/01/10 11:24:22;;;;;;;3.60;1.90;;;;;;;-128.00;-1.00;-1.00;264079;1273;1002856;-87
2023/01/10 11:30:37;;;;;;;2.10;1.30;;;;;;;-128.00;-1.00;-1.00;264555;1268;1002462;-88
2023/01/10 11:37:17;;;;;;;1.80;0.90;;;;;;;-128.00;-1.00;-1.00;264590;1273;1002570;-88
2023/01/10 11:43:33;;;;;;;2.40;1.10;;;;;;;-128.00;-1.00;-1.00;264447;1273;1002825;-87
2023/01/10 11:49:38;;;;;;;3.20;1.40;;;;;;;-128.00;-1.00;-1.00;265004;1273;1002671;-87
2023/01/10 11:55:46;;;;;;;2.60;1.20;;;;;;;-128.00;-1.00;-1.00;264829;1273;1003654;-87
2023/01/10 12:01:52;;;;;;;3.90;1.30;;;;;;;-128.00;-1.00;-1.00;265355;1270;1002536;-88
2023/01/10 12:08:05;;;;;;;;;;;;;;;-128.00;-1.00;-1.00;262455;1273;3367123;-87
2023/01/10 12:14:44;;;;;;;3.90;1.50;;;;;;;-128.00;-1.00;-1.00;264815;1269;1002770;-86
2023/01/10 12:20:51;;;;;;;3.30;1.60;;;;;;;-128.00;-1.00;-1.00;264877;1273;1003876;-86
2023/01/10 12:27:00;;;;;;;3.30;1.90;;;;;;;-128.00;-1.00;-1.00;264905;1273;1002922;-87
2023/01/10 12:33:17;;;;;;;5.60;3.00;;;;;;;-128.00;-1.00;-1.00;265397;1266;1002317;-87
2023/01/10 12:39:29;;;;;;;5.00;2.50;;;;;;;-128.00;-1.00;-1.00;264828;1273;1003379;-86
2023/01/10 12:45:39;;;;;;;3.90;2.20;;;;;;;-128.00;-1.00;-1.00;265164;1273;1002813;-87
2023/01/10 12:51:48;;;;;;;4.90;2.60;;;;;;;-128.00;-1.00;-1.00;264947;1273;1003922;-86
2023/01/10 12:58:03;;;;;;;5.40;2.70;;;;;;;-128.00;-1.00;-1.00;265328;1271;1002403;-86
2023/01/10 13:04:16;;;;;;;4.70;3.10;;;;;;;-128.00;-1.00;-1.00;265186;1273;1002144;-87
2023/01/10 13:10:21;;;;;;;5.20;3.20;;;;;;;-128.00;-1.00;-1.00;265692;1270;1002697;-87
2023/01/10 13:16:44;;;;;;;6.70;3.70;;;;;;;-128.00;-1.00;-1.00;265450;1268;1002719;-88
2023/01/10 13:22:52;;;;;;;6.30;4.00;;;;;;;-128.00;-1.00;-1.00;264924;1273;1002336;-88
2023/01/10 13:28:59;;;;;;;8.10;4.10;;;;;;;-128.00;-1.00;-1.00;265235;1273;1004157;-89
2023/01/10 13:35:13;;;;;;;8.60;4.50;;;;;;;-128.00;-1.00;-1.00;265187;1273;1002685;-84
2023/01/10 13:47:47;;;;;;;6.50;4.50;;;;;;;-128.00;-1.00;-1.00;265212;1273;1003058;-85
2023/01/10 13:54:00;;;;;;;8.60;5.10;;;;;;;-128.00;-1.00;-1.00;265204;1267;1002331;-84
2023/01/10 14:07:27;;;;;;;13.00;5.60;;;;;;;-128.00;-1.00;-1.00;265044;1271;1002783;-85
2023/01/10 14:13:30;;;;;;;10.20;5.70;;;;;;;-128.00;-1.00;-1.00;265652;1266;1003820;-82
2023/01/10 14:19:33;;;;;;;10.00;5.90;;;;;;;-128.00;-1.00;-1.00;265451;1269;1002928;-85
2023/01/10 14:25:39;;;;;;;11.30;6.80;;;;;;;-128.00;-1.00;-1.00;265479;1273;1002361;-86
2023/01/10 14:32:05;;;;;;;14.90;7.90;;;;;;;-128.00;-1.00;-1.00;265166;1273;1002787;-89
2023/01/10 14:38:22;;;;;;;14.80;8.00;;;;;;;-128.00;-1.00;-1.00;264526;1273;1002629;-87
2023/01/10 14:44:42;;;;;;;15.80;9.30;;;;;;;-128.00;-1.00;-1.00;264578;1266;1002578;-88
2023/01/10 14:50:50;;;;;;;13.80;8.60;;;;;;;-128.00;-1.00;-1.00;264537;1273;1003074;-88
2023/01/10 14:56:53;;;;;;;15.60;8.70;;;;;;;-128.00;-1.00;-1.00;264623;1270;1002652;-87
2023/01/10 15:03:02;;;;;;;14.50;8.30;;;;;;;-128.00;-1.00;-1.00;264852;1270;1002486;-87
2023/01/10 15:09:16;;;;;;;16.40;8.70;;;;;;;-128.00;-1.00;-1.00;264533;1271;1003178;-87
2023/01/10 15:15:52;;;;;;;16.40;8.90;;;;;;;-128.00;-1.00;-1.00;264653;1273;1003737;-86
2023/01/10 15:22:00;;;;;;;14.40;8.60;;;;;;;-128.00;-1.00;-1.00;264529;1273;1002844;-87
2023/01/10 15:28:18;;;;;;;15.90;9.80;;;;;;;-128.00;-1.00;-1.00;264526;1273;1002624;-88
2023/01/10 15:34:25;;;;;;;17.00;9.80;;;;;;;-128.00;-1.00;-1.00;264630;1273;1003555;-87
2023/01/10 15:40:35;;;;;;;16.50;9.40;;;;;;;-128.00;-1.00;-1.00;264478;1270;1002931;-87
2023/01/10 15:46:54;;;;;;;17.20;10.40;;;;;;;-128.00;-1.00;-1.00;264763;1270;1003632;-88
2023/01/10 15:53:05;;;;;;;20.90;11.00;;;;;;;-128.00;-1.00;-1.00;265005;1273;1002434;-88
2023/01/10 15:59:30;;;;;;;20.50;10.60;;;;;;;-128.00;-1.00;-1.00;264685;1273;1002842;-89
2023/01/10 16:05:37;;;;;;;20.50;11.90;;;;;;;-128.00;-1.00;-1.00;264578;1271;1002238;-88
2023/01/10 16:18:21;;;;;;;19.50;11.80;;;;;;;-128.00;-1.00;-1.00;264473;1273;1002799;-87
2023/01/10 16:24:29;;;;;;;21.50;13.20;;;;;;;-128.00;-1.00;-1.00;264625;1268;1002723;-88
2023/01/10 16:30:41;;;;;;;22.90;11.30;;;;;;;-128.00;-1.00;-1.00;264704;1273;1002121;-88
2023/01/10 16:36:54;;;;;;;21.90;11.90;;;;;;;-128.00;-1.00;-1.00;264881;1273;1002686;-88
2023/01/10 16:49:20;;;;;;;17.20;9.50;;;;;;;-128.00;-1.00;-1.00;264832;1273;1002569;-87
2023/01/10 16:55:47;;;;;;;16.90;9.90;;;;;;;-128.00;-1.00;-1.00;264551;1273;1002527;-86
2023/01/10 17:01:56;;;;;;;16.10;10.00;;;;;;;-128.00;-1.00;-1.00;264656;1264;1002934;-86
2023/01/10 17:08:03;;;;;;;16.10;9.60;;;;;;;-128.00;-1.00;-1.00;265297;1273;1002838;-87
2023/01/10 17:14:08;;;;;;;13.90;8.50;;;;;;;-128.00;-1.00;-1.00;265177;1273;1002814;-86
2023/01/10 17:20:13;;;;;;;17.20;10.00;;;;;;;-128.00;-1.00;-1.00;265366;1272;1002746;-88
2023/01/10 17:26:22;;;;;;;19.20;10.60;;;;;;;-128.00;-1.00;-1.00;265393;1273;1003388;-87
2023/01/10 17:32:27;;;;;;;18.60;10.20;;;;;;;-128.00;-1.00;-1.00;265513;1271;1003002;-88
2023/01/10 17:38:30;;;;;;;17.40;10.30;;;;;;;-128.00;-1.00;-1.00;265125;1273;1002916;-87
2023/01/10 17:44:33;;;;;;;19.60;11.20;;;;;;;-128.00;-1.00;-1.00;264967;1273;1005092;-88
2023/01/10 17:50:41;;;;;;;20.20;10.70;;;;;;;-128.00;-1.00;-1.00;264768;1273;1003328;-85
2023/01/10 17:56:51;;;;;;;20.40;11.80;;;;;;;-128.00;-1.00;-1.00;265056;1272;1003144;-84
2023/01/10 18:03:07;;;;;;;22.30;12.30;;;;;;;-128.00;-1.00;-1.00;264876;1270;1002417;-85
2023/01/10 18:09:16;;;;;;;19.30;11.60;;;;;;;-128.00;-1.00;-1.00;265374;1273;1003800;-84
2023/01/10 18:15:23;;;;;;;21.50;12.90;;;;;;;-128.00;-1.00;-1.00;265307;1272;1002416;-86
2023/01/10 18:21:27;;;;;;;23.20;13.30;;;;;;;-128.00;-1.00;-1.00;265188;1273;1002579;-88
2023/01/10 18:27:31;;;;;;;22.30;13.10;;;;;;;-128.00;-1.00;-1.00;265097;1273;1002732;-86
2023/01/10 18:33:37;;;;;;;21.50;12.60;;;;;;;-128.00;-1.00;-1.00;265378;1273;1002769;-85
2023/01/10 18:39:45;;;;;;;21.20;12.40;;;;;;;-128.00;-1.00;-1.00;265086;1273;1003966;-85
2023/01/10 18:46:06;;;;;;;20.10;12.00;;;;;;;-128.00;-1.00;-1.00;264965;1271;1002126;-83
2023/01/10 18:52:11;;;;;;;20.70;12.10;;;;;;;-128.00;-1.00;-1.00;264019;1273;1002877;-81
2023/01/10 18:58:22;;;;;;;22.20;12.60;;;;;;;-128.00;-1.00;-1.00;265363;1270;1002995;-85
2023/01/10 19:04:29;;;;;;;19.90;12.70;;;;;;;-128.00;-1.00;-1.00;265254;1273;1002732;-84
2023/01/10 19:10:33;;;;;;;21.40;13.40;;;;;;;-128.00;-1.00;-1.00;264278;1273;1002460;-85
2023/01/10 19:17:08;;;;;;;22.40;13.80;;;;;;;-128.00;-1.00;-1.00;264015;1267;1002731;-88
2023/01/10 19:23:18;;;;;;;23.30;14.50;;;;;;;-128.00;-1.00;-1.00;264941;1272;1003196;-86
2023/01/10 19:29:26;;;;;;;23.50;15.20;;;;;;;-128.00;-1.00;-1.00;265098;1273;1003000;-86
2023/01/10 19:35:34;;;;;;;28.00;16.30;;;;;;;-128.00;-1.00;-1.00;264750;1270;1002573;-89
2023/01/10 19:41:38;;;;;;;28.30;17.30;;;;;;;-128.00;-1.00;-1.00;264910;1273;1002888;-87
2023/01/10 19:47:48;;;;;;;29.00;17.80;;;;;;;-128.00;-1.00;-1.00;265267;1273;1002593;-87
2023/01/10 19:53:55;;;;;;;33.00;19.70;;;;;;;-128.00;-1.00;-1.00;265121;1267;1002943;-87
2023/01/10 20:00:42;;;;;;;35.70;21.00;;;;;;;-128.00;-1.00;-1.00;264989;1274;1002523;-87
2023/01/10 20:06:49;;;;;;;35.00;21.50;;;;;;;-128.00;-1.00;-1.00;265156;1270;1002752;-84
2023/01/10 20:13:00;;;;;;;36.80;21.80;;;;;;;-128.00;-1.00;-1.00;264858;1273;1003522;-87
2023/01/10 20:19:22;;;;;;;38.90;22.60;;;;;;;-128.00;-1.00;-1.00;265123;1273;1002809;-87
2023/01/10 20:26:01;;;;;;;38.70;21.80;;;;;;;-128.00;-1.00;-1.00;265023;1273;1002618;-86
2023/01/10 20:32:32;;;;;;;39.30;20.90;;;;;;;-128.00;-1.00;-1.00;265439;1273;1004731;-87
2023/01/10 20:38:56;;;;;;;35.50;19.70;;;;;;;-128.00;-1.00;-1.00;263909;1278;1002590;-87
2023/01/10 20:45:00;;;;;;;34.50;20.00;;;;;;;-128.00;-1.00;-1.00;264024;1277;1002433;-89
2023/01/10 20:51:21;;;;;;;36.80;20.10;;;;;;;-128.00;-1.00;-1.00;263537;1273;1003333;-89
2023/01/10 20:57:28;;;;;;;31.30;18.50;;;;;;;-128.00;-1.00;-1.00;264284;1270;1003820;-85
2023/01/10 21:03:44;;;;;;;33.40;19.50;;;;;;;-128.00;-1.00;-1.00;264130;1279;1002906;-87
2023/01/10 21:10:15;;;;;;;34.00;20.10;;;;;;;-128.00;-1.00;-1.00;264931;1267;1002665;-86
2023/01/10 21:16:31;;;;;;;32.80;19.80;;;;;;;-128.00;-1.00;-1.00;264818;1272;1005068;-89
2023/01/10 21:29:27;;;;;;;36.50;20.50;;;;;;;-128.00;-1.00;-1.00;264118;1280;1002845;-83
2023/01/10 21:35:33;;;;;;;35.70;20.50;;;;;;;-128.00;-1.00;-1.00;263793;1276;1003642;-82
2023/01/10 21:48:15;;;;;;;34.40;18.80;;;;;;;-128.00;-1.00;-1.00;264136;1274;1002854;-85
2023/01/10 21:54:27;;;;;;;33.70;18.40;;;;;;;-128.00;-1.00;-1.00;263988;1280;1002359;-84
2023/01/10 22:00:30;;;;;;;32.60;19.40;;;;;;;-128.00;-1.00;-1.00;263994;1274;1003697;-84
2023/01/10 22:06:37;;;;;;;32.50;19.00;;;;;;;-128.00;-1.00;-1.00;264074;1266;1002815;-86
2023/01/10 22:12:46;;;;;;;30.70;18.50;;;;;;;-128.00;-1.00;-1.00;263678;1277;1002676;-85
2023/01/10 22:18:52;;;;;;;35.70;21.20;;;;;;;-128.00;-1.00;-1.00;263800;1280;1002744;-83
2023/01/10 22:24:55;;;;;;;44.30;25.60;;;;;;;-128.00;-1.00;-1.00;264350;1280;1002566;-83
2023/01/10 22:30:58;;;;;;;41.20;23.90;;;;;;;-128.00;-1.00;-1.00;264282;1279;1002553;-85
2023/01/10 22:37:04;;;;;;;39.80;23.10;;;;;;;-128.00;-1.00;-1.00;264346;1277;1002786;-86
2023/01/10 22:43:07;;;;;;;41.80;22.90;;;;;;;-128.00;-1.00;-1.00;264444;1279;1002842;-86
2023/01/10 22:49:13;;;;;;;44.10;23.80;;;;;;;-128.00;-1.00;-1.00;264009;1279;1003287;-86
2023/01/10 22:55:17;;;;;;;39.40;22.20;;;;;;;-128.00;-1.00;-1.00;263902;1279;1004695;-85
2023/01/10 23:01:24;;;;;;;40.80;22.80;;;;;;;-128.00;-1.00;-1.00;263610;1279;1002208;-87
2023/01/10 23:07:26;;;;;;;39.20;22.10;;;;;;;-128.00;-1.00;-1.00;263735;1257;1002870;-83
2023/01/10 23:13:30;;;;;;;38.50;22.20;;;;;;;-128.00;-1.00;-1.00;263884;1280;1002743;-83
2023/01/10 23:19:41;;;;;;;36.20;21.20;;;;;;;-128.00;-1.00;-1.00;263929;1273;1002455;-82
2023/01/10 23:26:03;;;;;;;38.30;22.40;;;;;;;-128.00;-1.00;-1.00;263502;1279;1002672;-89
2023/01/10 23:32:06;;;;;;;38.30;21.60;;;;;;;-128.00;-1.00;-1.00;263690;1279;1002470;-89
2023/01/10 23:38:12;;;;;;;36.20;21.20;;;;;;;-128.00;-1.00;-1.00;263744;1277;1002680;-88
2023/01/10 23:44:21;;;;;;;38.20;22.30;;;;;;;-128.00;-1.00;-1.00;263282;1279;1004720;-86
2023/01/10 23:50:25;;;;;;;36.40;21.20;;;;;;;-128.00;-1.00;-1.00;263538;1276;1004000;-85
2023/01/10 23:56:36;;;;;;;36.70;22.60;;;;;;;-128.00;-1.00;-1.00;263600;1279;1002409;-85
